Adolf Würth Airport EDTY

Flugplatz Daten

Name: Adolf Würth Airport

Ident: EDTY

Lat: 49,11833191

Long: 9,783888817

Platzhöhe: 1299 ft

IataCode:

City: Schwäbisch Hall

Homepage: http://www.edty.de

Metar

2021/10/16 17:20
EDTY 161720Z AUTO 05002KT 9999 // NCD 09/07 Q1021

Taf

Gewünschte Webcam nicht vorhanden? Dann fügen Sie eine hinzu. Sie wird dann so schnell wie möglich freigeschaltet
Url: Title: